Terminal Aerodrome Forecast
Issued by NWS Cleveland, OH

Current Version | Previous Version | Text Only | Print | Product List | Glossary On
Versions: 1 2 3 4 5 6 7 8 9 10 11 12 13 14 15
000
FTUS41 KCLE 300109 AAA
TAFERI
TAF AMD
KERI 300109Z 3001/3024 08008KT P6SM VCSH OVC025
     FM300200 09012G22KT P6SM -SHRA OVC025
      TEMPO 3002/3006 09012KT 4SM -SHRA BKN015
     FM300600 10012KT 6SM -SHRA BKN015
      TEMPO 3008/3012 5SM -SHRA BKN008 OVC015
     FM301400 10015G25KT P6SM SCT015 BKN045=

USA.gov is the U.S. government's official web portal to all federal, state and local government web resources and services.